Pagrindinis puslapis
METAR-TAF:

METAR-TAF

Oro uostai :

Araxá, Minas Žeraisas, Brazilija

platuma: 19-33-38S, ilguma: 046-57-56W, Aukštis: 999 m

Dabartinis oras

Ataskaita buvo paskelbta 5 valandos ir 7 minutes, ne 18:00 UTC
Vėjas 10 kt iš Pietų/Pietvakarių
Temperatūra 32°C
Drėgmė 23%
Slėgis 1017 hPa
Matomumas 10 km arba daugiau
nėra debesų žemiau 1500 m ir nėra kamuolinių lietaus debesų

METAR: SBAX 161800Z 20010KT CAVOK 32/08 Q1017

Laikas: 20:07 (23:07 UTC)


TAF: trūkstamas

Orai ataskaitas ir orų prognozės (METAR, TAF).

turimą stotys yra geltonos ir raudonos taškus žemėlapyje.

Perkelti pele per norėdami pamatyti stoties vardą.

Tada spustelėkite, norėdami matyti oro stebėjimo ir prognozės.

Norėdami pakeisti žemėlapį: spustelėkite ant žalios mygtukų su juodo kryžiaus žemyn,; žalią mygtuką su brūkšneliu, jei norite nutolinti; arba žalių rodyklių gretimoms žemėlapius.


METAR-TAF: